Station: Jabiru  

  Atmospheric Gas Attenuation - ITU Rec 676-11   ----------------- dB/100km -----------------
Date Time Temp RH % AH g/m3 Dew Point Wind Direction Speed kph Gust kph Barometer mB Rainfall Since 9am 24GHz 47GHz 76GHz 122GHz 134GHz 241GHz
06/09 23:40 26.1 59 14.44 17.5 7 11 1015.4 0 31.2 31.6 56.2 148.4 156.4 542.8
06/09 23:30 26.4 57 14.19 17.2 9 11 1015.3 0 30.7 31.0 55.0 145.1 152.5 529.0
06/09 23:20 26.6 54 13.59 16.5 7 9 1015.3 0 29.4 30.0 52.4 138.3 144.2 500.1
06/09 23:10 26.9 52 13.31 16.2 7 11 1015.2 0 28.8 29.4 51.1 134.8 140.0 485.6
06/09 23:00 27.2 50 13.01 15.9 9 11 1015.1 0 28.1 28.9 49.7 131.2 135.6 470.3
06/09 22:50 27.5 48 12.7 15.5 9 13 1015.2 0 27.5 28.3 48.4 127.5 131.2 454.9
06/09 22:40 27.7 47 12.57 15.4 11 15 1015.2 0 27.2 28.0 47.8 125.9 129.2 448.1
06/09 22:30 27.9 46 12.44 15.2 11 17 1015.2 0 26.9 27.8 47.1 124.2 127.3 441.4
06/09 22:20 28 47 12.78 15.6 11 20 1015.3 0 27.6 28.3 48.4 127.5 131.4 455.6
06/09 22:10 27.9 52 14.06 17.1 9 15 1015.3 0 30.3 30.3 53.4 141.0 147.9 513.1
06/09 22:00 27.8 59 15.87 19.1 9 15 1015.2 0 34.1 33.3 60.9 160.8 172.2 598.0
06/09 21:50 27.8 64 17.22 20.4 9 15 1015 0 36.9 35.6 66.6 176.0 191.0 663.4
06/09 21:40 27.8 66 17.75 20.9 11 17 1015 0 38.0 36.6 68.9 182.2 198.5 689.8
06/09 21:30 27.9 66 17.85 21 11 17 1014.9 0 38.2 36.7 69.3 183.1 199.7 693.8
06/09 21:20 28 65 17.68 20.8 11 17 1014.7 0 37.9 36.3 68.4 180.9 197.0 684.3
06/09 21:10 28.1 65 17.78 20.9 11 17 1014.6 0 38.1 36.5 68.8 181.8 198.1 688.4
06/09 21:00 28.4 64 17.79 20.9 11 15 1014.5 0 38.1 36.3 68.5 181.2 197.5 686.2
06/09 20:50 28.7 63 17.8 21 11 15 1014.2 0 38.0 36.2 68.3 180.6 196.8 683.9
06/09 20:40 28.8 62 17.62 20.8 13 17 1014 0 37.7 35.9 67.4 178.2 194.0 674.0
06/09 20:30 29.1 61 17.62 20.8 13 19 1013.9 0 37.6 35.7 67.1 177.5 193.2 671.3
06/09 20:20 29.3 60 17.52 20.7 13 20 1013.6 0 37.4 35.5 66.5 175.9 191.2 664.6
06/09 20:10 29.6 58 17.21 20.5 13 19 1013.6 0 36.7 34.8 64.9 171.7 186.2 647.0
06/09 20:00 29.9 57 17.2 20.5 15 20 1013.3 0 36.7 34.7 64.6 170.9 185.3 643.9
06/09 19:50 30.2 55 16.86 20.2 13 20 1013.2 0 35.9 34.0 63.0 166.4 179.9 625.3
06/09 19:40 30.4 55 17.05 20.3 17 24 1012.9 0 36.3 34.2 63.6 168.1 182.0 632.5
06/09 19:30 30.6 54 16.92 20.2 20 28 1012.6 0 36.0 33.9 62.9 166.2 179.7 624.6
06/09 19:20 30.8 54 17.1 20.4 22 33 1012.4 0 36.4 34.1 63.4 167.7 181.7 631.4
06/09 19:10 30.9 53 16.87 20.2 24 35 1012.4 0 35.9 33.7 62.4 165.0 178.3 619.8
06/09 19:00 31.7 48 15.95 19.3 13 37 1012.2 0 33.9 31.9 58.1 153.5 164.4 571.3
06/09 18:50 33.1 38 13.6 16.9 7 9 1011.8 0 29.0 27.8 48.2 127.2 132.5 460.2
06/09 18:40 33.4 37 13.46 16.7 7 9 1011.7 0 28.7 27.5 47.5 125.4 130.4 452.6
06/09 18:30 33.6 36 13.23 16.5 7 9 1011.5 0 28.2 27.1 46.6 122.8 127.3 442.0
06/09 18:20 33.9 35 13.07 16.3 9 11 1011.4 0 27.8 26.8 45.8 120.9 125.0 433.9
06/09 18:10 34.2 35 13.28 16.5 9 13 1011.3 0 28.2 27.0 46.4 122.4 126.9 440.7
06/09 18:00 34.5 34 13.1 16.4 6 7 1011.3 0 27.9 26.6 45.6 120.3 124.4 431.8
06/09 17:50 34.4 33 12.65 15.8 6 7 1011.2 0 26.9 26.0 44.1 116.2 119.4 414.3
06/09 17:40 34.5 32 12.33 15.4 6 7 1011.1 0 26.3 25.5 42.9 113.1 115.6 401.1
06/09 17:30 34.6 32 12.4 15.5 6 9 1011 0 26.4 25.6 43.1 113.6 116.2 403.3
06/09 17:20 34.6 33 12.78 16 6 9 1011 0 27.2 26.1 44.4 117.1 120.5 418.4
06/09 17:10 35.1 31 12.33 15.4 6 11 1010.9 0 26.2 25.4 42.6 112.3 114.7 398.1
06/09 17:00 35 31 12.26 15.3 11 17 1010.9 0 26.1 25.3 42.4 111.8 114.1 395.9
06/09 16:50 35.1 31 12.33 15.4 15 20 1010.8 0 26.2 25.4 42.6 112.3 114.7 398.1
06/09 16:40 36.2 29 12.21 15.3 17 24 1010.8 0 25.9 24.9 41.6 109.7 111.8 388.2
06/09 16:30 36.5 28 11.97 15 9 19 1010.7 0 25.4 24.5 40.7 107.2 108.8 377.6
06/09 16:20 36.1 29 12.14 15.2 9 13 1010.6 0 25.8 24.8 41.4 109.2 111.2 385.9
06/09 16:10 36.1 29 12.14 15.2 11 15 1010.7 0 25.8 24.8 41.4 109.2 111.2 385.9
06/09 16:00 36.1 29 12.14 15.2 9 20 1010.6 0 25.8 24.8 41.4 109.2 111.2 385.9
06/09 15:50 36 29 12.08 15.2 17 24 1010.7 0 25.7 24.8 41.3 108.8 110.7 384.1
06/09 15:40 36.4 30 12.76 16 11 28 1010.8 0 27.0 25.6 43.4 114.4 117.6 408.4
06/09 15:30 35.4 30 12.12 15.2 11 19 1010.9 0 25.8 25.0 41.7 110.0 112.0 388.5
06/09 15:20 35.6 30 12.24 15.3 11 17 1011 0 26.0 25.1 42.0 110.8 113.0 392.2
06/09 15:10 35.8 30 12.37 15.5 17 32 1011.1 0 26.3 25.2 42.4 111.7 114.2 396.3
06/09 15:00 36.3 29 12.27 15.4 13 22 1011.2 0 26.0 25.0 41.8 110.1 112.4 390.1
06/09 14:50 36 29 12.08 15.2 11 19 1011.3 0 25.7 24.8 41.3 108.9 110.7 384.3
06/09 14:40 36.2 28 11.79 14.8 19 26 1011.5 0 25.1 24.3 40.3 106.1 107.3 372.4
06/09 14:30 36.3 29 12.27 15.4 15 26 1011.7 0 26.0 25.0 41.8 110.2 112.4 390.3
06/09 14:20 35.9 29 12.02 15.1 7 15 1011.8 0 25.6 24.7 41.2 108.5 110.3 382.6
06/09 14:10 35.5 32 12.99 16.3 9 17 1012 0 27.6 26.2 44.7 117.9 121.6 422.4
06/09 14:00 35.4 33 13.33 16.7 13 26 1012.2 0 28.3 26.7 45.9 121.2 125.7 436.6
06/09 13:50 35.1 34 13.52 16.9 11 15 1012.4 0 28.7 27.1 46.8 123.4 128.4 445.9
06/09 13:40 35 35 13.84 17.2 7 20 1012.5 0 29.3 27.6 48.0 126.6 132.3 459.5
06/09 13:30 35.2 35 13.99 17.4 11 24 1012.8 0 29.6 27.7 48.4 127.8 133.7 464.6
06/09 13:20 34.7 36 14.02 17.4 11 20 1012.9 0 29.7 27.9 48.8 128.8 134.9 468.8
06/09 13:10 34.2 38 14.41 17.8 11 15 1013.2 0 30.6 28.7 50.6 133.5 140.5 488.0
06/09 13:00 34.1 38 14.34 17.8 9 15 1013.4 0 30.4 28.6 50.4 133.0 139.8 485.8
06/09 12:50 33.7 38 14.04 17.4 9 17 1013.6 0 29.8 28.3 49.5 130.7 136.9 475.7
06/09 12:40 33.1 40 14.32 17.7 9 19 1013.8 0 30.4 28.9 50.9 134.5 141.4 491.2
06/09 12:30 33.7 39 14.41 17.8 9 17 1014.1 0 30.6 28.9 50.9 134.4 141.4 491.4
06/09 12:20 33.7 39 14.41 17.8 13 22 1014.3 0 30.6 28.9 50.9 134.4 141.5 491.5
06/09 12:10 32.8 44 15.5 18.9 7 11 1014.5 0 32.9 30.9 55.6 147.0 156.7 544.4
06/09 12:00 32 46 15.53 18.9 6 13 1014.7 0 33.0 31.2 56.3 148.8 158.7 551.4
06/09 11:50 32.6 47 16.39 19.8 9 17 1015 0 34.8 32.4 59.3 156.7 168.5 585.8
06/09 11:40 31.9 48 16.12 19.5 9 19 1015.2 0 34.3 32.2 58.8 155.2 166.5 578.8
06/09 11:30 32.4 49 16.9 20.3 6 11 1015.4 0 35.8 33.3 61.5 162.6 175.7 610.8
06/09 11:20 31.5 50 16.44 19.8 6 13 1015.7 0 34.9 32.9 60.4 159.5 171.7 596.6
06/09 11:10 31.7 52 17.28 20.6 6 13 1016 0 36.7 34.2 63.6 168.2 182.4 634.2
06/09 11:00 30.8 56 17.73 21 4 9 1016.2 0 37.7 35.3 66.3 175.2 190.8 663.1
06/09 10:50 30.7 54 17.01 20.3 6 9 1016.5 0 36.2 34.1 63.4 167.5 181.2 629.8
06/09 10:40 30.9 55 17.51 20.8 7 13 1016.7 0 37.2 34.9 65.3 172.6 187.6 652.0
06/09 10:30 30.2 59 18.09 21.3 7 11 1016.9 0 38.5 36.2 68.4 180.8 197.4 686.1
06/09 10:20 29.5 60 17.71 20.9 7 11 1017 0 37.8 35.8 67.4 178.1 193.9 673.7
06/09 10:10 30.4 59 18.29 21.5 7 13 1017.1 0 38.9 36.5 69.1 182.6 199.7 694.2
06/09 10:00 29 64 18.39 21.5 6 15 1017.1 0 39.2 37.3 70.8 187.1 204.8 711.9
06/09 09:50 29.1 63 18.2 21.3 6 13 1017.2 0 38.8 36.9 69.8 184.7 201.9 701.6
06/09 09:40 28.4 68 18.9 21.9 7 11 1017.2 0 40.4 38.4 73.6 194.7 213.9 743.5
06/09 09:30 28.6 68 19.11 22.1 9 13 1017.2 0 40.8 38.7 74.4 196.7 216.5 752.3
06/09 09:20 27.5 72 19.05 22 7 11 1017.2 0 40.8 39.1 75.2 198.8 218.7 760.1
06/09 09:10 28 71 19.31 22.2 9 13 1017.2 0 41.3 39.4 75.9 200.7 221.2 768.6
06/09 09:00 27.5 71 18.79 21.8 7 11 1017.2 0 40.2 38.6 74.0 195.6 214.9 746.6
06/09 08:50 27.2 72 18.74 21.7 6 11 1017.1 0 40.2 38.7 74.0 195.8 215.0 746.9
06/09 08:40 26.6 75 18.88 21.8 4 9 1017.1 0 40.5 39.2 75.3 199.1 218.8 760.1
06/09 08:30 26.2 78 19.2 22.1 0 6 1017.1 0 41.2 40.0 77.2 204.1 224.8 781.1
06/09 08:20 25.6 81 19.28 22.1 2 6 1017.1 0 41.5 40.5 78.1 206.7 227.9 791.6
06/09 08:10 25.3 83 19.43 22.2 0 0 1017 0 41.8 40.9 79.2 209.4 231.1 802.8
06/09 08:00 24.6 86 19.36 22.1 0 0 1016.9 0 41.7 41.1 79.6 210.4 232.2 806.4
06/09 07:50 24.5 88 19.69 22.4 0 0 1016.8 0 42.5 41.8 81.3 215.0 237.7 825.6
06/09 07:40 23.6 90 19.14 21.9 0 0 1016.8 0 41.4 41.1 79.5 210.4 231.8 805.0
06/09 07:30 23.3 91 19.03 21.7 0 0 1016.6 0 41.2 41.1 79.3 209.8 231.0 802.0
06/09 07:20 22.8 93 18.9 21.6 0 0 1016.6 0 41.0 41.1 79.2 209.5 230.5 800.2
06/09 07:10 22.6 93 18.68 21.4 0 0 1016.5 0 40.5 40.7 78.3 207.2 227.6 790.1

Last Refresh: 06-Sep-2026 23:50:23

Bureau of Meteorology